createdAt,value
2017-11-04T00:00:32.573Z,-0.10
2017-11-04T00:02:58.906Z,-0.10
2017-11-04T00:05:25.176Z,-0.10
2017-11-04T00:07:51.325Z,-0.20
2017-11-04T00:10:17.723Z,-0.20
2017-11-04T00:12:43.867Z,-0.20
2017-11-04T00:15:09.980Z,-0.20
2017-11-04T00:17:36.282Z,-0.20
2017-11-04T00:20:03.198Z,-0.30
2017-11-04T00:22:29.420Z,-0.30
2017-11-04T00:24:55.548Z,-0.30
2017-11-04T00:27:21.775Z,-0.30
2017-11-04T00:29:48.002Z,-0.30
2017-11-04T00:32:14.146Z,-0.30
2017-11-04T00:34:40.368Z,-0.30
2017-11-04T00:37:06.464Z,-0.30
2017-11-04T00:39:32.658Z,-0.30
2017-11-04T00:41:58.816Z,-0.30
2017-11-04T00:44:25.003Z,-0.40
2017-11-04T00:46:51.213Z,-0.40
2017-11-04T00:49:18.166Z,-0.40
2017-11-04T00:51:45.185Z,-0.40
2017-11-04T00:54:11.415Z,-0.40
2017-11-04T00:56:37.601Z,-0.50
2017-11-04T00:59:03.738Z,-0.50
2017-11-04T01:01:29.879Z,-0.50
2017-11-04T01:03:56.097Z,-0.50
2017-11-04T01:06:22.323Z,-0.50
2017-11-04T01:08:49.266Z,-0.50
2017-11-04T01:11:15.508Z,-0.50
2017-11-04T01:13:41.700Z,-0.50
2017-11-04T01:16:07.808Z,-0.50
2017-11-04T01:18:33.986Z,-0.60
2017-11-04T01:21:00.171Z,-0.60
2017-11-04T01:23:26.408Z,-0.60
2017-11-04T01:25:52.624Z,-0.60
2017-11-04T01:28:18.705Z,-0.60
2017-11-04T01:30:45.639Z,-0.50
2017-11-04T01:33:12.661Z,-0.50
2017-11-04T01:35:38.908Z,-0.50
2017-11-04T01:38:05.080Z,-0.50
2017-11-04T01:40:31.374Z,-0.50
2017-11-04T01:42:58.228Z,-0.40
2017-11-04T01:45:24.475Z,-0.40
2017-11-04T01:47:50.649Z,-0.50
2017-11-04T01:50:16.813Z,-0.40
2017-11-04T01:52:43.095Z,-0.40
2017-11-04T01:55:09.286Z,-0.40
2017-11-04T01:57:35.486Z,-0.40
2017-11-04T02:00:02.513Z,-0.30
2017-11-04T02:02:29.379Z,-0.30
2017-11-04T02:04:55.604Z,-0.40
2017-11-04T02:07:21.789Z,-0.30
2017-11-04T02:09:47.947Z,-0.30
2017-11-04T02:12:14.226Z,-0.30
2017-11-04T02:14:40.432Z,-0.30
2017-11-04T02:17:06.605Z,-0.30
2017-11-04T02:19:32.750Z,-0.20
2017-11-04T02:21:59.691Z,-0.30
2017-11-04T02:24:26.646Z,-0.30
2017-11-04T02:26:52.847Z,-0.30
2017-11-04T02:29:19.119Z,-0.30
2017-11-04T02:31:45.312Z,-0.20
2017-11-04T02:34:12.323Z,-0.30
2017-11-04T02:36:38.620Z,-0.30
2017-11-04T02:39:04.797Z,-0.30
2017-11-04T02:41:31.781Z,-0.20
2017-11-04T02:43:57.898Z,-0.30
2017-11-04T02:46:24.084Z,-0.20
2017-11-04T02:48:50.183Z,-0.20
2017-11-04T02:51:16.258Z,-0.20
2017-11-04T02:53:43.265Z,-0.20
2017-11-04T02:56:09.418Z,-0.20
2017-11-04T02:58:37.220Z,-0.20
2017-11-04T03:01:03.353Z,-0.20
2017-11-04T03:03:29.652Z,-0.10
2017-11-04T03:05:55.805Z,-0.10
2017-11-04T03:08:21.986Z,-0.10
2017-11-04T03:10:48.845Z,-0.10
2017-11-04T03:13:15.207Z,-0.20
2017-11-04T03:15:41.347Z,-0.10
2017-11-04T03:18:07.519Z,-0.10
2017-11-04T03:20:33.618Z,-0.20
2017-11-04T03:23:00.642Z,-0.20
2017-11-04T03:25:27.488Z,-0.20
2017-11-04T03:27:53.669Z,-0.20
2017-11-04T03:30:19.856Z,-0.10
2017-11-04T03:32:46.807Z,0.00
2017-11-04T03:35:13.763Z,0.00
2017-11-04T03:37:39.911Z,-0.10
2017-11-04T03:40:06.050Z,-0.10
2017-11-04T03:42:32.327Z,-0.10
2017-11-04T03:44:59.230Z,0.00
2017-11-04T03:47:25.377Z,0.00
2017-11-04T03:49:51.632Z,0.00
2017-11-04T03:52:17.826Z,0.00
2017-11-04T03:54:44.045Z,0.10
2017-11-04T03:57:10.180Z,0.10
2017-11-04T03:59:36.650Z,0.00
2017-11-04T04:02:02.776Z,0.00
2017-11-04T04:04:29.000Z,0.00
2017-11-04T04:06:55.088Z,0.00
2017-11-04T04:09:21.292Z,0.00
2017-11-04T04:11:47.464Z,0.10
2017-11-04T04:14:14.420Z,0.10
2017-11-04T04:16:40.650Z,0.10
2017-11-04T04:19:06.784Z,0.10
2017-11-04T04:21:33.027Z,0.00
2017-11-04T04:23:59.204Z,0.10
2017-11-04T04:26:26.101Z,0.10
2017-11-04T04:28:52.206Z,0.10
2017-11-04T04:31:18.369Z,0.10
2017-11-04T04:33:44.525Z,0.10
2017-11-04T04:36:11.396Z,0.10
2017-11-04T04:38:37.622Z,0.00
2017-11-04T04:41:03.798Z,0.00
2017-11-04T04:43:30.086Z,0.00
2017-11-04T04:45:56.235Z,0.00
2017-11-04T04:48:22.523Z,0.00
2017-11-04T04:50:48.781Z,0.00
2017-11-04T04:53:14.939Z,-0.10
2017-11-04T04:55:41.087Z,-0.10
2017-11-04T04:58:07.972Z,-0.10
2017-11-04T05:00:34.132Z,-0.10
2017-11-04T05:03:01.010Z,0.00
2017-11-04T05:05:27.247Z,0.00
2017-11-04T05:07:53.372Z,0.00
2017-11-04T05:10:19.523Z,0.00
2017-11-04T05:12:45.705Z,0.00
2017-11-04T05:15:11.816Z,0.00
2017-11-04T05:17:38.660Z,0.00
2017-11-04T05:20:05.690Z,0.10
2017-11-04T05:22:32.580Z,0.10
2017-11-04T05:24:58.753Z,0.10
2017-11-04T05:27:24.909Z,0.20
2017-11-04T05:29:51.061Z,0.20
2017-11-04T05:32:17.220Z,0.30
2017-11-04T05:34:43.370Z,0.20
2017-11-04T05:37:09.546Z,0.20
2017-11-04T05:39:35.700Z,0.30
2017-11-04T05:42:01.840Z,0.30
2017-11-04T05:44:28.852Z,0.30
2017-11-04T05:46:54.984Z,0.30
2017-11-04T05:49:21.060Z,0.30
2017-11-04T05:51:47.294Z,0.30
2017-11-04T05:54:13.556Z,0.30
2017-11-04T05:56:39.823Z,0.30
2017-11-04T05:59:06.716Z,0.30
2017-11-04T06:01:32.869Z,0.30
2017-11-04T06:03:59.871Z,0.40
2017-11-04T06:06:26.043Z,0.40
2017-11-04T06:08:53.017Z,0.50
2017-11-04T06:11:19.192Z,0.50
2017-11-04T06:13:45.300Z,0.40
2017-11-04T06:16:11.616Z,0.40
2017-11-04T06:18:38.477Z,0.50
2017-11-04T06:21:04.672Z,0.40
2017-11-04T06:23:30.835Z,0.50
2017-11-04T06:25:57.020Z,0.60
2017-11-04T06:28:23.182Z,0.60
2017-11-04T06:30:49.312Z,0.60
2017-11-04T06:33:15.492Z,0.70
2017-11-04T06:35:41.748Z,0.60
2017-11-04T06:38:07.878Z,0.70
2017-11-04T06:40:34.124Z,0.70
2017-11-04T06:43:00.310Z,0.70
2017-11-04T06:45:26.572Z,0.60
2017-11-04T06:47:52.734Z,0.70
2017-11-04T06:50:18.893Z,0.70
2017-11-04T06:52:45.100Z,0.70
2017-11-04T06:55:11.298Z,0.70
2017-11-04T06:57:38.195Z,0.70
2017-11-04T07:00:04.463Z,0.70
2017-11-04T07:02:31.474Z,0.80
2017-11-04T07:04:57.574Z,0.80
2017-11-04T07:07:23.772Z,0.80
2017-11-04T07:09:49.922Z,0.90
2017-11-04T07:12:16.254Z,1.00
2017-11-04T07:14:42.398Z,1.00
2017-11-04T07:17:08.565Z,1.00
2017-11-04T07:19:35.434Z,1.20
2017-11-04T07:22:01.689Z,1.10
2017-11-04T07:24:27.882Z,1.30
2017-11-04T07:26:54.108Z,1.30
2017-11-04T07:29:20.359Z,1.40
2017-11-04T07:31:46.460Z,1.50
2017-11-04T07:34:12.683Z,1.70
2017-11-04T07:36:39.161Z,1.80
2017-11-04T07:39:05.311Z,1.90
2017-11-04T07:41:32.254Z,2.10
2017-11-04T07:43:59.140Z,2.20
2017-11-04T07:46:25.312Z,2.20
2017-11-04T07:48:51.553Z,2.40
2017-11-04T07:51:18.635Z,2.70
2017-11-04T07:53:44.779Z,2.70
2017-11-04T07:56:10.994Z,2.90
2017-11-04T07:58:37.153Z,3.10
2017-11-04T08:01:03.308Z,3.20
2017-11-04T08:03:30.255Z,3.50
2017-11-04T08:05:57.206Z,3.60
2017-11-04T08:08:23.434Z,3.60
2017-11-04T08:10:49.595Z,3.70
2017-11-04T08:13:15.746Z,3.80
2017-11-04T08:15:42.016Z,4.00
2017-11-04T08:18:08.135Z,4.10
2017-11-04T08:20:35.059Z,4.30
2017-11-04T08:23:01.923Z,4.40
2017-11-04T08:25:28.166Z,4.30
2017-11-04T08:27:54.344Z,4.60
2017-11-04T08:30:20.511Z,4.90
2017-11-04T08:32:46.627Z,5.10
2017-11-04T08:35:12.780Z,5.30
2017-11-04T08:37:39.050Z,5.70
2017-11-04T08:40:06.214Z,6.50
2017-11-04T08:42:32.420Z,6.50
2017-11-04T08:44:59.479Z,6.90
2017-11-04T08:47:26.491Z,7.60
2017-11-04T08:49:52.826Z,7.50
2017-11-04T08:52:19.055Z,7.80
2017-11-04T08:54:45.406Z,8.10
2017-11-04T08:57:12.463Z,8.50
2017-11-04T08:59:39.634Z,8.50
2017-11-04T09:02:05.928Z,8.80
2017-11-04T09:04:32.993Z,9.20
2017-11-04T09:06:59.194Z,9.20
2017-11-04T09:09:25.345Z,9.30
2017-11-04T09:11:51.642Z,9.40
2017-11-04T09:14:18.608Z,9.60
2017-11-04T09:16:45.782Z,9.70
2017-11-04T09:19:12.095Z,9.70
2017-11-04T09:21:38.336Z,9.80
2017-11-04T09:24:04.562Z,9.80
2017-11-04T09:26:30.737Z,9.90
2017-11-04T09:28:56.974Z,9.90
2017-11-04T09:31:23.172Z,9.80
2017-11-04T09:33:49.420Z,9.80
2017-11-04T09:36:16.167Z,9.70
2017-11-04T09:38:43.006Z,9.80
2017-11-04T09:41:10.016Z,9.70
2017-11-04T09:43:36.206Z,9.80
2017-11-04T09:46:02.382Z,9.80
2017-11-04T09:48:28.674Z,9.80
2017-11-04T09:50:54.831Z,9.80
2017-11-04T09:53:21.123Z,9.80
2017-11-04T09:55:47.616Z,9.90
2017-11-04T09:58:16.320Z,9.80
2017-11-04T10:00:42.538Z,9.80
2017-11-04T10:03:09.520Z,9.80
2017-11-04T10:05:35.731Z,9.70
2017-11-04T10:08:01.921Z,9.80
2017-11-04T10:10:28.924Z,9.90
2017-11-04T10:12:55.190Z,10.00
2017-11-04T10:15:21.556Z,10.10
2017-11-04T10:17:47.743Z,10.20
2017-11-04T10:20:14.105Z,10.30
2017-11-04T10:22:41.046Z,10.40
2017-11-04T10:25:07.945Z,10.50
2017-11-04T10:27:34.011Z,10.50
2017-11-04T10:30:00.963Z,10.60
2017-11-04T10:32:27.433Z,10.60
2017-11-04T10:34:53.605Z,10.60
2017-11-04T10:37:20.503Z,10.70
2017-11-04T10:39:46.748Z,10.70
2017-11-04T10:42:12.914Z,10.80
2017-11-04T10:44:39.098Z,10.80
2017-11-04T10:47:05.381Z,10.80
2017-11-04T10:49:31.579Z,10.80
2017-11-04T10:51:58.496Z,10.90
2017-11-04T10:54:24.700Z,10.90
2017-11-04T10:56:50.919Z,10.90
2017-11-04T10:59:17.233Z,11.00
2017-11-04T11:01:43.347Z,11.00
2017-11-04T11:04:09.654Z,10.90
2017-11-04T11:06:36.827Z,11.00
2017-11-04T11:09:03.071Z,11.00
2017-11-04T11:11:29.262Z,11.00
2017-11-04T11:13:56.202Z,11.10
2017-11-04T11:16:23.235Z,11.20
2017-11-04T11:18:50.240Z,11.20
2017-11-04T11:21:16.545Z,11.20
2017-11-04T11:23:42.760Z,11.20
2017-11-04T11:26:09.823Z,11.10
2017-11-04T11:28:36.064Z,11.10
2017-11-04T11:31:02.320Z,11.10
2017-11-04T11:33:28.635Z,11.10
2017-11-04T11:35:54.965Z,11.10
2017-11-04T11:38:21.092Z,11.20
2017-11-04T11:40:47.339Z,11.20
2017-11-04T11:43:13.622Z,11.20
2017-11-04T11:45:39.897Z,11.20
2017-11-04T11:48:06.080Z,11.20
2017-11-04T11:50:32.270Z,11.20
2017-11-04T11:52:59.248Z,11.20
2017-11-04T11:55:25.451Z,11.20
2017-11-04T11:57:51.724Z,11.20
2017-11-04T12:00:17.924Z,11.20
2017-11-04T12:02:44.242Z,11.30
2017-11-04T12:05:10.545Z,11.20
2017-11-04T12:07:36.676Z,11.20
2017-11-04T12:10:02.918Z,11.20
2017-11-04T12:12:29.913Z,11.20
2017-11-04T12:14:56.190Z,11.10
2017-11-04T12:17:22.470Z,11.10
2017-11-04T12:19:48.606Z,11.10
2017-11-04T12:22:14.852Z,11.10
2017-11-04T12:24:41.044Z,11.10
2017-11-04T12:27:07.262Z,11.00
2017-11-04T12:29:33.505Z,11.00
2017-11-04T12:31:59.692Z,11.00
2017-11-04T12:34:25.923Z,11.00
2017-11-04T12:36:52.037Z,11.00
2017-11-04T12:39:18.267Z,11.10
2017-11-04T12:41:44.556Z,11.10
2017-11-04T12:44:10.673Z,11.10
2017-11-04T12:46:37.079Z,11.20
2017-11-04T12:49:03.390Z,11.20
2017-11-04T12:51:29.612Z,11.30
2017-11-04T12:53:55.992Z,11.40
2017-11-04T12:56:22.082Z,11.40
2017-11-04T12:58:48.324Z,11.40
2017-11-04T13:01:14.450Z,11.40
2017-11-04T13:03:40.708Z,11.40
2017-11-04T13:06:07.708Z,11.50
2017-11-04T13:08:33.782Z,11.50
2017-11-04T13:11:00.659Z,11.50
2017-11-04T13:13:26.773Z,11.50
2017-11-04T13:15:52.962Z,11.60
2017-11-04T13:18:19.634Z,11.60
2017-11-04T13:20:45.765Z,11.60
2017-11-04T13:23:11.961Z,11.60
2017-11-04T13:25:38.305Z,11.70
2017-11-04T13:28:05.188Z,12.10
2017-11-04T13:30:31.471Z,12.10
2017-11-04T13:32:58.323Z,12.40
2017-11-04T13:35:25.241Z,12.50
2017-11-04T13:37:51.458Z,12.50
2017-11-04T13:40:17.631Z,12.60
2017-11-04T13:42:43.810Z,12.60
2017-11-04T13:45:09.966Z,12.70
2017-11-04T13:47:36.859Z,13.00
2017-11-04T13:50:03.074Z,13.00
2017-11-04T13:52:29.290Z,13.00
2017-11-04T13:54:55.478Z,13.10
2017-11-04T13:57:22.482Z,13.10
2017-11-04T13:59:48.752Z,13.10
2017-11-04T14:02:15.727Z,13.10
2017-11-04T14:04:41.960Z,13.10
2017-11-04T14:07:08.159Z,13.00
2017-11-04T14:09:34.411Z,13.00
2017-11-04T14:12:00.608Z,13.00
2017-11-04T14:14:27.477Z,12.90
2017-11-04T14:16:54.745Z,12.90
2017-11-04T14:19:20.960Z,12.80
2017-11-04T14:21:47.189Z,12.70
2017-11-04T14:24:13.279Z,12.70
2017-11-04T14:26:40.220Z,12.50
2017-11-04T14:29:07.168Z,12.50
2017-11-04T14:31:34.136Z,12.40
2017-11-04T14:34:00.328Z,12.40
2017-11-04T14:36:27.380Z,12.40
2017-11-04T14:38:54.368Z,12.40
2017-11-04T14:41:20.528Z,12.40
2017-11-04T14:43:46.688Z,12.30
2017-11-04T14:46:13.741Z,12.30
2017-11-04T14:48:40.092Z,12.20
2017-11-04T14:51:06.416Z,12.20
2017-11-04T14:53:32.618Z,12.20
2017-11-04T14:55:59.622Z,12.30
2017-11-04T14:58:25.792Z,12.20
2017-11-04T15:00:52.000Z,12.20
2017-11-04T15:03:19.017Z,12.20
2017-11-04T15:05:45.195Z,12.20
2017-11-04T15:08:11.344Z,12.20
2017-11-04T15:10:37.596Z,12.10
2017-11-04T15:13:03.829Z,12.10
2017-11-04T15:15:30.188Z,12.00
2017-11-04T15:17:57.214Z,12.00
2017-11-04T15:20:23.364Z,11.90
2017-11-04T15:22:50.286Z,11.90
2017-11-04T15:25:16.521Z,11.90
2017-11-04T15:27:43.455Z,11.90
2017-11-04T15:30:09.613Z,11.90
2017-11-04T15:32:35.845Z,11.90
2017-11-04T15:35:02.070Z,11.90
2017-11-04T15:37:28.314Z,11.90
2017-11-04T15:39:54.754Z,11.80
2017-11-04T15:42:20.906Z,11.70
2017-11-04T15:44:47.221Z,11.70
2017-11-04T15:47:13.335Z,11.60
2017-11-04T15:49:39.635Z,11.60
2017-11-04T15:52:06.627Z,11.50
2017-11-04T15:54:33.520Z,11.50
2017-11-04T15:56:59.696Z,11.50
2017-11-04T15:59:25.914Z,11.40
2017-11-04T16:01:52.234Z,11.40
2017-11-04T16:04:18.393Z,11.30
2017-11-04T16:06:44.660Z,11.30
2017-11-04T16:09:10.893Z,11.30
2017-11-04T16:11:37.102Z,11.20
2017-11-04T16:14:04.062Z,11.10
2017-11-04T16:16:30.294Z,11.10
2017-11-04T16:18:56.615Z,11.10
2017-11-04T16:21:22.869Z,11.10
2017-11-04T16:23:49.175Z,11.20
2017-11-04T16:26:15.408Z,11.20
2017-11-04T16:28:41.575Z,11.10
2017-11-04T16:31:07.845Z,11.10
2017-11-04T16:33:34.818Z,10.90
2017-11-04T16:36:01.069Z,10.90
2017-11-04T16:38:27.357Z,10.90
2017-11-04T16:40:53.583Z,10.80
2017-11-04T16:43:19.967Z,10.80
2017-11-04T16:45:46.452Z,10.80
2017-11-04T16:48:12.566Z,10.80
2017-11-04T16:50:38.726Z,11.00
2017-11-04T16:53:04.949Z,11.00
2017-11-04T16:55:31.295Z,11.10
2017-11-04T16:57:57.520Z,11.10
2017-11-04T17:00:23.727Z,11.00
2017-11-04T17:02:50.007Z,11.10
2017-11-04T17:05:17.083Z,11.00
2017-11-04T17:07:43.328Z,11.00
2017-11-04T17:10:09.530Z,11.00
2017-11-04T17:12:35.697Z,10.90
2017-11-04T17:15:02.193Z,10.90
2017-11-04T17:17:29.721Z,10.80
2017-11-04T17:19:55.915Z,10.80
2017-11-04T17:22:22.118Z,10.80
2017-11-04T17:24:48.389Z,10.80
2017-11-04T17:27:14.557Z,10.80
2017-11-04T17:29:41.072Z,10.80
2017-11-04T17:32:08.141Z,11.00
2017-11-04T17:34:34.361Z,11.00
2017-11-04T17:37:00.576Z,11.00
2017-11-04T17:39:27.512Z,10.90
2017-11-04T17:41:54.549Z,11.00
2017-11-04T17:44:20.650Z,11.00
2017-11-04T17:46:46.923Z,11.20
2017-11-04T17:49:13.817Z,11.10
2017-11-04T17:51:40.071Z,11.20
2017-11-04T17:54:06.294Z,11.20
2017-11-04T17:56:33.456Z,11.20
2017-11-04T17:59:01.379Z,11.20
2017-11-04T18:01:27.749Z,11.20
2017-11-04T18:03:54.921Z,11.60
2017-11-04T18:06:21.156Z,11.60
2017-11-04T18:08:47.355Z,11.70
2017-11-04T18:11:14.241Z,11.60
2017-11-04T18:13:40.437Z,11.60
2017-11-04T18:16:07.398Z,11.50
2017-11-04T18:18:33.604Z,11.40
2017-11-04T18:21:00.706Z,11.30
2017-11-04T18:23:26.888Z,11.30
2017-11-04T18:25:53.123Z,11.30
2017-11-04T18:28:19.341Z,11.20
2017-11-04T18:30:45.544Z,11.20
2017-11-04T18:33:12.482Z,11.20
2017-11-04T18:35:38.666Z,11.20
2017-11-04T18:38:04.832Z,11.10
2017-11-04T18:40:30.990Z,11.10
2017-11-04T18:42:57.237Z,11.10
2017-11-04T18:45:23.374Z,11.10
2017-11-04T18:47:50.005Z,11.00
2017-11-04T18:50:16.108Z,10.90
2017-11-04T18:52:42.257Z,10.80
2017-11-04T18:55:09.402Z,10.80
2017-11-04T18:57:35.734Z,10.70
2017-11-04T19:00:01.938Z,10.70
2017-11-04T19:02:28.204Z,10.80
2017-11-04T19:04:54.535Z,10.80
2017-11-04T19:07:20.720Z,10.70
2017-11-04T19:09:46.925Z,10.70
2017-11-04T19:12:13.801Z,10.70
2017-11-04T19:14:39.970Z,10.70
2017-11-04T19:17:06.312Z,10.70
2017-11-04T19:19:32.657Z,10.70
2017-11-04T19:21:59.559Z,10.60
2017-11-04T19:24:25.757Z,10.60
2017-11-04T19:26:51.960Z,10.60
2017-11-04T19:29:19.075Z,10.60
2017-11-04T19:31:45.212Z,10.50
2017-11-04T19:34:11.630Z,10.50
2017-11-04T19:36:37.917Z,10.50
2017-11-04T19:39:04.238Z,10.50
2017-11-04T19:41:30.445Z,10.50
2017-11-04T19:43:56.685Z,10.50
2017-11-04T19:46:23.458Z,10.50
2017-11-04T19:48:50.531Z,10.50
2017-11-04T19:51:17.220Z,10.50
2017-11-04T19:53:43.605Z,10.50
2017-11-04T19:56:10.552Z,10.40
2017-11-04T19:58:36.795Z,10.40
2017-11-04T20:01:03.653Z,10.30
2017-11-04T20:03:29.875Z,10.30
2017-11-04T20:05:56.000Z,10.30
2017-11-04T20:08:22.184Z,10.20
2017-11-04T20:10:48.354Z,10.20
2017-11-04T20:13:14.530Z,10.20
2017-11-04T20:15:40.690Z,10.20
2017-11-04T20:18:07.638Z,10.20
2017-11-04T20:20:34.181Z,10.20
2017-11-04T20:23:00.370Z,10.10
2017-11-04T20:25:26.563Z,10.10
2017-11-04T20:27:52.728Z,10.00
2017-11-04T20:30:19.737Z,10.00
2017-11-04T20:32:45.891Z,10.00
2017-11-04T20:35:12.118Z,10.00
2017-11-04T20:37:38.555Z,10.00
2017-11-04T20:40:04.764Z,10.00
2017-11-04T20:42:31.034Z,10.00
2017-11-04T20:44:57.196Z,9.90
2017-11-04T20:47:23.367Z,9.90
2017-11-04T20:49:50.303Z,9.90
2017-11-04T20:52:16.546Z,9.90
2017-11-04T20:54:43.567Z,9.90
2017-11-04T20:57:09.796Z,9.90
2017-11-04T20:59:37.219Z,9.80
2017-11-04T21:02:03.451Z,9.80
2017-11-04T21:04:29.641Z,9.90
2017-11-04T21:06:55.806Z,9.80
2017-11-04T21:09:22.825Z,9.80
2017-11-04T21:11:49.048Z,9.80
2017-11-04T21:14:15.205Z,9.80
2017-11-04T21:16:41.483Z,9.80
2017-11-04T21:19:07.816Z,9.80
2017-11-04T21:21:34.756Z,9.70
2017-11-04T21:24:00.976Z,9.70
2017-11-04T21:26:27.885Z,9.70
2017-11-04T21:28:53.995Z,9.70
2017-11-04T21:31:20.211Z,9.70
2017-11-04T21:33:46.369Z,9.70
2017-11-04T21:36:12.497Z,9.70
2017-11-04T21:38:38.656Z,9.70
2017-11-04T21:41:05.650Z,9.70
2017-11-04T21:43:32.015Z,9.70
2017-11-04T21:45:59.193Z,9.80
2017-11-04T21:48:25.380Z,9.80
2017-11-04T21:50:52.910Z,10.00
2017-11-04T21:53:20.185Z,10.10
2017-11-04T21:55:46.462Z,10.10
2017-11-04T21:58:12.594Z,10.10
2017-11-04T22:00:39.011Z,10.20
2017-11-04T22:03:05.258Z,10.10
2017-11-04T22:05:31.504Z,10.10
2017-11-04T22:07:57.695Z,10.10
2017-11-04T22:10:23.946Z,10.10
2017-11-04T22:12:50.143Z,10.10
2017-11-04T22:15:16.277Z,10.10
2017-11-04T22:17:42.570Z,10.20
2017-11-04T22:20:09.614Z,10.20
2017-11-04T22:22:35.806Z,10.20
2017-11-04T22:25:02.147Z,10.20
2017-11-04T22:27:28.353Z,10.20
2017-11-04T22:29:54.615Z,10.10
2017-11-04T22:32:20.924Z,10.20
2017-11-04T22:34:47.414Z,10.10
2017-11-04T22:37:13.754Z,10.10
2017-11-04T22:39:39.967Z,10.10
2017-11-04T22:42:06.197Z,10.10
2017-11-04T22:44:32.428Z,10.10
2017-11-04T22:46:58.715Z,10.10
2017-11-04T22:49:24.885Z,10.00
2017-11-04T22:51:51.088Z,10.00
2017-11-04T22:54:18.018Z,9.90
2017-11-04T22:56:44.306Z,9.80
2017-11-04T22:59:10.560Z,9.90
2017-11-04T23:01:36.738Z,9.90
2017-11-04T23:04:02.930Z,9.90
2017-11-04T23:06:30.394Z,9.80
2017-11-04T23:08:57.333Z,9.80
2017-11-04T23:11:24.279Z,9.80
2017-11-04T23:13:51.262Z,9.80
2017-11-04T23:16:17.487Z,9.80
2017-11-04T23:18:43.701Z,9.80
2017-11-04T23:21:09.900Z,9.80
2017-11-04T23:23:36.924Z,9.80
2017-11-04T23:26:03.060Z,9.80
2017-11-04T23:28:29.423Z,9.80
2017-11-04T23:30:55.660Z,9.80
2017-11-04T23:33:21.936Z,9.80
2017-11-04T23:35:48.065Z,9.70
2017-11-04T23:38:15.001Z,9.60
2017-11-04T23:40:41.217Z,9.60
2017-11-04T23:43:07.362Z,9.60
2017-11-04T23:45:33.494Z,9.50
2017-11-04T23:47:59.676Z,9.50
2017-11-04T23:50:25.821Z,9.50
2017-11-04T23:52:52.064Z,9.40
2017-11-04T23:55:18.272Z,9.50
2017-11-04T23:57:44.443Z,9.50
